Terminal Aerodrome Forecast
Issued by NWS Cleveland, OH

Home | Current Version | Previous Version | Graphics & Text | Print | Product List | Glossary On
Versions: 1 2 3 4 5 6 7 8 9 10 11 12 13 14 15 16 17 18 19
000
FTUS41 KCLE 210500
TAFCAK
TAF
KCAK 210538Z 2106/2206 VRB03KT P6SM SCT250
     FM210700 00000KT 4SM BR SCT250
     FM211000 00000KT 3/4SM BR SCT250
     FM211330 00000KT 4SM BR SCT250
     FM211430 VRB03KT P6SM SCT250
     FM211600 VRB03KT P6SM BKN045
     FM212200 VRB03KT P6SM SKC=

USA.gov is the U.S. government's official web portal to all federal, state and local government web resources and services.